createdAt,value
2018-12-14T00:00:35.885Z,38.60
2018-12-14T00:03:08.955Z,38.70
2018-12-14T00:05:42.009Z,38.70
2018-12-14T00:08:13.113Z,38.70
2018-12-14T00:10:44.208Z,38.60
2018-12-14T00:13:15.326Z,38.70
2018-12-14T00:15:46.491Z,38.80
2018-12-14T00:18:17.588Z,38.70
2018-12-14T00:20:48.716Z,38.50
2018-12-14T00:23:19.884Z,38.50
2018-12-14T00:25:50.968Z,38.60
2018-12-14T00:28:21.957Z,38.50
2018-12-14T00:30:53.038Z,38.50
2018-12-14T00:33:24.139Z,38.50
2018-12-14T00:35:55.345Z,38.30
2018-12-14T00:38:26.480Z,38.40
2018-12-14T00:40:57.557Z,38.30
2018-12-14T00:43:28.670Z,38.40
2018-12-14T00:45:59.632Z,38.30
2018-12-14T00:48:30.772Z,38.20
2018-12-14T00:51:01.869Z,38.30
2018-12-14T00:53:39.664Z,38.30
2018-12-14T00:56:10.653Z,38.40
2018-12-14T00:58:41.809Z,38.40
2018-12-14T01:01:12.909Z,38.40
2018-12-14T01:03:44.025Z,38.50
2018-12-14T01:06:15.110Z,38.50
2018-12-14T01:08:46.250Z,38.50
2018-12-14T01:11:17.488Z,38.60
2018-12-14T01:13:48.636Z,38.60
2018-12-14T01:16:19.735Z,38.60
2018-12-14T01:18:50.854Z,38.60
2018-12-14T01:21:21.860Z,38.70
2018-12-14T01:23:52.981Z,38.70
2018-12-14T01:26:24.172Z,38.80
2018-12-14T01:28:55.285Z,38.80
2018-12-14T01:31:26.387Z,38.80
2018-12-14T01:33:58.559Z,38.70
2018-12-14T01:36:29.536Z,38.60
2018-12-14T01:39:00.649Z,38.60
2018-12-14T01:41:33.690Z,38.50
2018-12-14T01:44:04.682Z,38.50
2018-12-14T01:46:36.701Z,38.40
2018-12-14T01:49:07.809Z,38.40
2018-12-14T01:51:38.896Z,38.40
2018-12-14T01:54:09.917Z,38.50
2018-12-14T01:56:40.995Z,38.70
2018-12-14T01:59:13.252Z,38.50
2018-12-14T02:01:44.393Z,38.50
2018-12-14T02:04:15.525Z,38.40
2018-12-14T02:06:46.605Z,38.40
2018-12-14T02:09:17.743Z,38.40
2018-12-14T02:11:48.834Z,38.50
2018-12-14T02:14:19.958Z,38.50
2018-12-14T02:16:51.077Z,38.40
2018-12-14T02:19:22.100Z,38.30
2018-12-14T02:21:53.205Z,38.30
2018-12-14T02:24:24.414Z,38.50
2018-12-14T02:26:55.517Z,38.60
2018-12-14T02:29:26.635Z,38.50
2018-12-14T02:31:57.731Z,38.60
2018-12-14T02:34:28.857Z,38.60
2018-12-14T02:37:00.005Z,38.60
2018-12-14T02:39:31.121Z,38.40
2018-12-14T02:42:02.253Z,38.50
2018-12-14T02:44:33.359Z,38.40
2018-12-14T02:47:04.472Z,38.50
2018-12-14T02:49:35.588Z,38.50
2018-12-14T02:52:06.661Z,38.50
2018-12-14T02:54:37.752Z,38.60
2018-12-14T02:57:08.839Z,38.60
2018-12-14T02:59:39.934Z,38.50
2018-12-14T03:02:11.027Z,38.60
2018-12-14T03:04:44.091Z,38.50
2018-12-14T03:07:15.177Z,38.50
2018-12-14T03:09:46.302Z,38.40
2018-12-14T03:12:17.388Z,39.10
2018-12-14T03:14:48.960Z,38.50
2018-12-14T03:17:20.357Z,38.50
2018-12-14T03:19:51.772Z,38.60
2018-12-14T03:22:23.368Z,38.40
2018-12-14T03:24:54.830Z,38.40
2018-12-14T03:27:25.914Z,38.50
2018-12-14T03:29:57.011Z,38.60
2018-12-14T03:32:28.130Z,38.60
2018-12-14T03:34:59.240Z,38.50
2018-12-14T03:37:30.320Z,38.50
2018-12-14T03:40:01.471Z,38.60
2018-12-14T03:42:34.595Z,38.60
2018-12-14T03:45:05.620Z,38.60
2018-12-14T03:47:37.869Z,38.60
2018-12-14T03:50:08.977Z,38.60
2018-12-14T03:52:40.049Z,38.60
2018-12-14T03:55:11.164Z,38.60
2018-12-14T03:57:42.260Z,39.00
2018-12-14T04:00:13.368Z,38.50
2018-12-14T04:02:44.535Z,38.60
2018-12-14T04:05:15.853Z,38.60
2018-12-14T04:07:46.940Z,38.50
2018-12-14T04:10:18.051Z,39.00
2018-12-14T04:12:49.029Z,38.20
2018-12-14T04:15:20.162Z,38.10
2018-12-14T04:17:51.241Z,38.20
2018-12-14T04:20:22.348Z,38.30
2018-12-14T04:22:53.445Z,38.30
2018-12-14T04:25:24.660Z,38.30
2018-12-14T04:27:55.752Z,38.20
2018-12-14T04:30:26.867Z,38.30
2018-12-14T04:32:57.944Z,38.10
2018-12-14T04:35:29.056Z,38.10
2018-12-14T04:38:02.151Z,38.10
2018-12-14T04:40:33.300Z,38.10
2018-12-14T04:43:04.392Z,38.00
2018-12-14T04:45:35.512Z,38.00
2018-12-14T04:48:06.682Z,37.90
2018-12-14T04:50:37.867Z,37.80
2018-12-14T04:53:09.443Z,37.80
2018-12-14T04:55:40.552Z,38.10
2018-12-14T04:58:11.650Z,38.10
2018-12-14T05:00:43.202Z,38.50
2018-12-14T05:03:14.350Z,38.10
2018-12-14T05:05:46.460Z,38.10
2018-12-14T05:08:17.724Z,38.10
2018-12-14T05:10:48.992Z,38.10
2018-12-14T05:13:20.088Z,38.10
2018-12-14T05:15:51.464Z,38.10
2018-12-14T05:18:22.743Z,38.20
2018-12-14T05:20:53.980Z,38.10
2018-12-14T05:23:25.610Z,38.00
2018-12-14T05:25:56.675Z,38.00
2018-12-14T05:28:27.848Z,37.90
2018-12-14T05:30:58.963Z,37.90
2018-12-14T05:33:30.061Z,37.90
2018-12-14T05:36:01.171Z,38.00
2018-12-14T05:38:32.369Z,38.00
2018-12-14T05:41:03.483Z,38.10
2018-12-14T05:43:34.565Z,38.10
2018-12-14T05:46:05.686Z,38.10
2018-12-14T05:48:36.770Z,38.00
2018-12-14T05:51:07.893Z,37.90
2018-12-14T05:53:38.968Z,38.60
2018-12-14T05:56:10.071Z,38.10
2018-12-14T05:58:41.169Z,38.60
2018-12-14T06:01:12.291Z,38.20
2018-12-14T06:03:43.372Z,38.30
2018-12-14T06:06:14.506Z,38.30
2018-12-14T06:08:45.637Z,38.30
2018-12-14T06:11:16.741Z,38.10
2018-12-14T06:13:47.847Z,38.10
2018-12-14T06:16:18.982Z,38.10
2018-12-14T06:18:50.023Z,38.00
2018-12-14T06:21:21.138Z,37.90
2018-12-14T06:23:52.217Z,38.00
2018-12-14T06:26:23.372Z,37.80
2018-12-14T06:28:54.476Z,38.10
2018-12-14T06:31:25.583Z,38.00
2018-12-14T06:33:56.656Z,38.10
2018-12-14T06:36:27.635Z,38.00
2018-12-14T06:38:58.727Z,38.10
2018-12-14T06:41:29.827Z,38.00
2018-12-14T06:44:00.897Z,38.00
2018-12-14T06:46:31.994Z,38.00
2018-12-14T06:49:03.063Z,38.10
2018-12-14T06:51:34.174Z,38.10
2018-12-14T06:54:05.254Z,38.00
2018-12-14T06:56:36.365Z,38.00
2018-12-14T06:59:07.543Z,38.10
2018-12-14T07:01:39.720Z,38.00
2018-12-14T07:04:10.787Z,38.10
2018-12-14T07:06:41.915Z,38.10
2018-12-14T07:09:13.200Z,38.00
2018-12-14T07:11:44.305Z,38.00
2018-12-14T07:14:15.699Z,38.10
2018-12-14T07:16:46.827Z,38.40
2018-12-14T07:19:17.899Z,38.30
2018-12-14T07:21:49.001Z,38.40
2018-12-14T07:24:20.093Z,38.30
2018-12-14T07:26:51.599Z,38.40
2018-12-14T07:29:22.681Z,38.10
2018-12-14T07:31:53.781Z,38.20
2018-12-14T07:34:24.791Z,38.10
2018-12-14T07:36:56.891Z,38.20
2018-12-14T07:39:27.975Z,38.30
2018-12-14T07:41:59.209Z,38.30
2018-12-14T07:44:30.455Z,38.20
2018-12-14T07:47:01.749Z,38.30
2018-12-14T07:49:32.912Z,38.30
2018-12-14T07:52:04.041Z,38.10
2018-12-14T07:54:35.024Z,38.00
2018-12-14T07:57:06.137Z,37.90
2018-12-14T07:59:38.503Z,37.90
2018-12-14T08:02:09.556Z,38.00
2018-12-14T08:04:41.068Z,38.50
2018-12-14T08:07:12.500Z,37.90
2018-12-14T08:09:43.838Z,37.90
2018-12-14T08:12:15.404Z,38.10
2018-12-14T08:14:46.706Z,38.10
2018-12-14T08:17:17.704Z,38.10
2018-12-14T08:19:48.776Z,38.10
2018-12-14T08:22:19.776Z,38.00
2018-12-14T08:24:50.889Z,38.10
2018-12-14T08:27:22.084Z,38.40
2018-12-14T08:29:53.170Z,38.30
2018-12-14T08:32:24.268Z,38.40
2018-12-14T08:34:55.231Z,38.40
2018-12-14T08:37:26.367Z,38.40
2018-12-14T08:39:57.440Z,38.50
2018-12-14T08:42:28.437Z,38.60
2018-12-14T08:45:00.772Z,38.70
2018-12-14T08:47:31.764Z,38.70
2018-12-14T08:50:02.849Z,38.50
2018-12-14T08:52:34.007Z,38.40
2018-12-14T08:55:05.087Z,38.20
2018-12-14T08:57:37.227Z,38.10
2018-12-14T09:00:08.368Z,37.90
2018-12-14T09:02:39.520Z,38.00
2018-12-14T09:05:10.598Z,38.00
2018-12-14T09:07:41.695Z,38.10
2018-12-14T09:10:12.672Z,38.30
2018-12-14T09:12:43.766Z,38.50
2018-12-14T09:15:14.799Z,38.50
2018-12-14T09:17:46.280Z,38.50
2018-12-14T09:20:17.789Z,38.60
2018-12-14T09:22:49.411Z,38.60
2018-12-14T09:25:20.496Z,38.50
2018-12-14T09:27:51.738Z,38.40
2018-12-14T09:30:22.943Z,38.40
2018-12-14T09:32:54.049Z,38.30
2018-12-14T09:35:25.148Z,38.20
2018-12-14T09:37:56.261Z,38.10
2018-12-14T09:40:27.340Z,38.10
2018-12-14T09:42:58.444Z,37.90
2018-12-14T09:45:29.525Z,37.90
2018-12-14T09:48:00.622Z,37.90
2018-12-14T09:50:31.702Z,37.80
2018-12-14T09:53:02.963Z,37.90
2018-12-14T09:55:34.136Z,37.90
2018-12-14T09:58:05.231Z,38.10
2018-12-14T10:00:36.763Z,38.00
2018-12-14T10:03:07.882Z,38.20
2018-12-14T10:05:38.992Z,38.30
2018-12-14T10:08:10.241Z,38.30
2018-12-14T10:10:41.447Z,38.40
2018-12-14T10:13:12.563Z,38.40
2018-12-14T10:15:43.672Z,38.50
2018-12-14T10:18:14.840Z,38.40
2018-12-14T10:20:45.925Z,38.40
2018-12-14T10:23:16.995Z,38.30
2018-12-14T10:25:48.256Z,38.00
2018-12-14T10:28:19.704Z,37.90
2018-12-14T10:30:50.738Z,37.80
2018-12-14T10:33:21.932Z,37.80
2018-12-14T10:35:53.041Z,37.90
2018-12-14T10:38:24.549Z,37.90
2018-12-14T10:40:55.721Z,37.80
2018-12-14T10:43:26.800Z,37.80
2018-12-14T10:45:58.000Z,37.70
2018-12-14T10:48:29.107Z,37.80
2018-12-14T10:51:00.099Z,38.00
2018-12-14T10:53:31.212Z,38.20
2018-12-14T10:56:02.291Z,38.10
2018-12-14T10:58:33.396Z,38.00
2018-12-14T11:01:14.264Z,38.10
2018-12-14T11:03:42.862Z,38.10
2018-12-14T11:06:13.976Z,38.20
2018-12-14T11:08:45.080Z,38.10
2018-12-14T11:11:16.176Z,38.10
2018-12-14T11:13:47.302Z,38.20
2018-12-14T11:16:18.494Z,38.30
2018-12-14T11:18:49.898Z,38.30
2018-12-14T11:21:21.084Z,38.20
2018-12-14T11:23:52.164Z,38.20
2018-12-14T11:26:23.252Z,38.10
2018-12-14T11:28:54.409Z,38.00
2018-12-14T11:31:26.451Z,37.90
2018-12-14T11:33:57.551Z,37.80
2018-12-14T11:36:28.647Z,37.90
2018-12-14T11:38:59.640Z,37.80
2018-12-14T11:41:31.040Z,37.90
2018-12-14T11:44:02.145Z,37.90
2018-12-14T11:46:33.211Z,37.90
2018-12-14T11:49:04.322Z,38.00
2018-12-14T11:51:35.502Z,37.80
2018-12-14T11:54:06.621Z,37.70
2018-12-14T11:56:37.712Z,37.80
2018-12-14T11:59:08.812Z,37.50
2018-12-14T12:01:39.921Z,37.50
2018-12-14T12:04:11.080Z,37.40
2018-12-14T12:06:42.052Z,37.40
2018-12-14T12:09:13.688Z,37.40
2018-12-14T12:11:44.841Z,37.40
2018-12-14T12:14:15.940Z,37.50
2018-12-14T12:16:47.021Z,37.60
2018-12-14T12:19:18.194Z,37.40
2018-12-14T12:21:49.297Z,37.50
2018-12-14T12:24:20.504Z,37.40
2018-12-14T12:26:51.603Z,38.10
2018-12-14T12:29:22.743Z,37.70
2018-12-14T12:31:53.853Z,37.60
2018-12-14T12:34:24.966Z,37.40
2018-12-14T12:36:56.096Z,37.30
2018-12-14T12:39:27.191Z,37.30
2018-12-14T12:41:58.275Z,37.50
2018-12-14T12:44:33.433Z,37.70
2018-12-14T12:47:02.544Z,37.60
2018-12-14T12:49:33.685Z,37.70
2018-12-14T12:52:04.775Z,37.70
2018-12-14T12:54:35.759Z,37.70
2018-12-14T12:57:06.837Z,37.60
2018-12-14T12:59:38.036Z,37.70
2018-12-14T13:02:09.016Z,37.80
2018-12-14T13:04:40.248Z,37.80
2018-12-14T13:07:11.324Z,37.90
2018-12-14T13:09:42.423Z,38.40
2018-12-14T13:12:13.508Z,38.10
2018-12-14T13:21:46.428Z,37.90
2018-12-14T13:24:17.890Z,38.20
2018-12-14T13:26:49.380Z,38.20
2018-12-14T13:29:20.837Z,38.30
2018-12-14T13:31:52.213Z,38.30
2018-12-14T13:34:23.726Z,38.10
2018-12-14T13:36:55.219Z,38.10
2018-12-14T13:39:27.717Z,37.90
2018-12-14T13:41:59.096Z,37.90
2018-12-14T13:44:31.221Z,38.00
2018-12-14T13:47:03.725Z,38.10
2018-12-14T13:49:35.021Z,38.10
2018-12-14T13:52:06.913Z,38.20
2018-12-14T13:54:38.483Z,38.00
2018-12-14T13:57:09.882Z,38.00
2018-12-14T13:59:41.257Z,38.10
2018-12-14T14:02:12.662Z,38.30
2018-12-14T14:04:44.022Z,38.30
2018-12-14T14:07:15.510Z,38.50
2018-12-14T14:09:47.084Z,38.60
2018-12-14T14:12:18.748Z,38.50
2018-12-14T14:14:52.980Z,38.60
2018-12-14T14:17:23.473Z,38.40
2018-12-14T14:19:55.672Z,38.60
2018-12-14T14:22:28.065Z,38.50
2018-12-14T14:24:59.441Z,38.60
2018-12-14T14:27:31.009Z,38.60
2018-12-14T14:30:02.392Z,38.60
2018-12-14T14:32:35.884Z,38.40
2018-12-14T14:35:08.027Z,38.40
2018-12-14T14:37:39.856Z,38.40
2018-12-14T14:40:11.330Z,38.20
2018-12-14T14:42:42.847Z,38.10
2018-12-14T14:45:15.609Z,38.10
2018-12-14T14:47:47.025Z,38.00
2018-12-14T14:50:18.453Z,37.90
2018-12-14T14:52:50.766Z,37.70
2018-12-14T14:55:22.076Z,37.80
2018-12-14T14:57:53.700Z,37.70
2018-12-14T15:00:24.930Z,37.60
2018-12-14T15:02:56.515Z,37.70
2018-12-14T15:05:28.012Z,37.80
2018-12-14T15:07:59.557Z,37.70
2018-12-14T15:10:31.127Z,37.70
2018-12-14T15:13:02.675Z,37.60
2018-12-14T15:15:34.158Z,37.60
2018-12-14T15:18:05.570Z,37.60
2018-12-14T15:20:37.113Z,37.50
2018-12-14T15:23:08.620Z,37.40
2018-12-14T15:25:40.089Z,37.50
2018-12-14T15:28:11.969Z,37.50
2018-12-14T15:30:43.714Z,37.50
2018-12-14T15:33:15.336Z,37.40
2018-12-14T16:01:39.310Z,38.90
2018-12-14T16:04:10.749Z,39.00
2018-12-14T16:06:42.357Z,38.90
2018-12-14T16:09:13.819Z,38.70
2018-12-14T16:11:45.303Z,38.50
2018-12-14T16:14:17.241Z,38.40
2018-12-14T16:16:48.706Z,38.30
2018-12-14T16:19:20.230Z,38.20
2018-12-14T16:21:52.653Z,38.80
2018-12-14T16:24:24.035Z,38.10
2018-12-14T16:26:55.482Z,37.90
2018-12-14T16:29:26.930Z,37.70
2018-12-14T16:31:58.413Z,37.50
2018-12-14T16:37:15.885Z,37.30
2018-12-14T16:39:46.996Z,37.50
2018-12-14T16:42:18.153Z,37.50
2018-12-14T16:44:49.136Z,37.50
2018-12-14T16:47:20.132Z,37.50
2018-12-14T16:49:51.252Z,37.50
2018-12-14T16:52:22.345Z,37.40
2018-12-14T16:54:53.459Z,37.40
2018-12-14T16:57:24.619Z,37.50
2018-12-14T16:59:55.800Z,37.40
2018-12-14T17:02:26.955Z,37.40
2018-12-14T17:04:58.175Z,37.40
2018-12-14T17:07:29.276Z,36.90
2018-12-14T17:10:00.384Z,37.50
2018-12-14T17:12:31.497Z,37.50
2018-12-14T17:15:02.631Z,37.30
2018-12-14T17:17:33.725Z,37.30
2018-12-14T17:20:04.902Z,37.20
2018-12-14T17:22:35.993Z,37.20
2018-12-14T17:25:07.920Z,37.10
2018-12-14T17:27:39.098Z,37.00
2018-12-14T17:30:10.524Z,36.90
2018-12-14T17:32:41.607Z,37.00
2018-12-14T17:35:12.748Z,37.40
2018-12-14T17:37:43.979Z,37.20
2018-12-14T17:40:15.161Z,37.20
2018-12-14T17:42:48.240Z,37.20
2018-12-14T17:45:19.353Z,37.10
2018-12-14T17:47:50.536Z,37.10
2018-12-14T17:50:21.644Z,37.20
2018-12-14T17:52:52.921Z,37.20
2018-12-14T17:55:25.567Z,37.10
2018-12-14T17:57:56.785Z,37.10
2018-12-14T18:00:27.902Z,37.10
2018-12-14T18:02:59.087Z,37.00
2018-12-14T18:05:30.260Z,37.10
2018-12-14T18:08:01.424Z,37.10
2018-12-14T18:10:33.047Z,37.00
2018-12-14T18:13:06.134Z,37.00
2018-12-14T18:15:37.461Z,37.10
2018-12-14T18:18:08.816Z,37.00
2018-12-14T18:20:41.636Z,37.00
2018-12-14T18:23:12.993Z,36.40
2018-12-14T18:25:44.265Z,36.90
2018-12-14T18:28:15.351Z,36.90
2018-12-14T18:30:46.645Z,37.00
2018-12-14T18:33:17.764Z,37.00
2018-12-14T18:35:48.906Z,36.90
2018-12-14T18:38:20.062Z,36.80
2018-12-14T18:40:51.360Z,36.80
2018-12-14T18:43:22.505Z,36.90
2018-12-14T18:45:56.007Z,36.90
2018-12-14T18:48:28.112Z,36.90
2018-12-14T18:50:59.880Z,37.00
2018-12-14T18:53:31.263Z,37.10
2018-12-14T18:56:04.883Z,37.00
2018-12-14T18:58:37.356Z,36.90
2018-12-14T19:01:09.226Z,37.00
2018-12-14T19:03:40.429Z,37.10
2018-12-14T19:06:11.722Z,37.10
2018-12-14T19:08:42.733Z,37.00
2018-12-14T19:11:13.913Z,37.00
2018-12-14T19:13:45.547Z,36.90
2018-12-14T19:16:16.722Z,36.80
2018-12-14T19:18:47.832Z,36.90
2018-12-14T19:21:19.040Z,37.10
2018-12-14T19:23:50.354Z,37.10
2018-12-14T19:26:21.861Z,37.10
2018-12-14T19:28:52.955Z,37.00
2018-12-14T19:31:24.076Z,37.00
2018-12-14T19:33:55.074Z,37.10
2018-12-14T19:36:26.201Z,37.00
2018-12-14T19:38:57.499Z,37.20
2018-12-14T19:41:28.685Z,37.40
2018-12-14T19:43:59.668Z,37.40
2018-12-14T19:46:30.856Z,37.40
2018-12-14T19:49:02.070Z,37.30
2018-12-14T19:51:33.187Z,37.20
2018-12-14T19:54:04.282Z,37.20
2018-12-14T19:56:35.388Z,37.20
2018-12-14T19:59:06.479Z,37.20
2018-12-14T20:01:37.623Z,37.00
2018-12-14T20:04:09.032Z,36.90
2018-12-14T20:06:40.121Z,37.00
2018-12-14T20:09:11.124Z,37.00
2018-12-14T20:11:42.301Z,37.00
2018-12-14T20:14:13.405Z,37.00
2018-12-14T20:16:44.612Z,37.10
2018-12-14T20:19:15.720Z,36.90
2018-12-14T20:21:46.869Z,36.90
2018-12-14T20:24:17.960Z,36.90
2018-12-14T20:26:49.108Z,36.90
2018-12-14T20:29:20.252Z,36.90
2018-12-14T20:31:51.377Z,37.00
2018-12-14T20:34:22.575Z,37.60
2018-12-14T20:36:53.671Z,36.90
2018-12-14T20:39:24.774Z,36.90
2018-12-14T20:41:55.883Z,37.00
2018-12-14T20:44:26.981Z,37.00
2018-12-14T20:46:58.095Z,36.80
2018-12-14T20:49:29.719Z,36.80
2018-12-14T20:52:00.998Z,36.80
2018-12-14T20:54:32.217Z,36.80
2018-12-14T20:57:03.311Z,36.70
2018-12-14T20:59:34.437Z,36.50
2018-12-14T21:02:05.705Z,36.70
2018-12-14T21:04:36.818Z,36.70
2018-12-14T21:07:07.964Z,36.60
2018-12-14T21:09:39.059Z,36.60
2018-12-14T21:12:10.176Z,36.50
2018-12-14T21:14:41.472Z,36.60
2018-12-14T21:17:12.703Z,36.60
2018-12-14T21:19:43.789Z,36.50
2018-12-14T21:22:15.324Z,36.50
2018-12-14T21:24:46.647Z,36.50
2018-12-14T21:27:17.767Z,36.60
2018-12-14T21:29:48.924Z,36.70
2018-12-14T21:32:20.059Z,36.80
2018-12-14T21:34:51.168Z,36.90
2018-12-14T21:37:22.294Z,36.80
2018-12-14T21:39:53.353Z,36.80
2018-12-14T21:42:24.471Z,36.90
2018-12-14T21:44:55.632Z,37.20
2018-12-14T21:47:26.731Z,36.80
2018-12-14T21:49:57.929Z,36.90
2018-12-14T21:52:29.043Z,36.90
2018-12-14T21:55:00.133Z,36.90
2018-12-14T21:57:31.499Z,36.90
2018-12-14T22:00:02.596Z,37.00
2018-12-14T22:02:35.557Z,37.10
2018-12-14T22:05:07.108Z,37.20
2018-12-14T22:07:38.224Z,37.20
2018-12-14T22:10:10.168Z,37.20
2018-12-14T22:12:41.283Z,37.00
2018-12-14T22:15:12.395Z,37.50
2018-12-14T22:17:43.577Z,37.00
2018-12-14T22:20:14.664Z,37.10
2018-12-14T22:22:45.653Z,37.10
2018-12-14T22:25:16.739Z,37.20
2018-12-14T22:27:47.757Z,37.20
2018-12-14T22:30:18.845Z,37.20
2018-12-14T22:32:50.069Z,37.10
2018-12-14T22:35:21.060Z,37.00
2018-12-14T22:37:52.185Z,37.00
2018-12-14T22:40:23.273Z,37.00
2018-12-14T22:42:54.389Z,37.00
2018-12-14T22:45:25.484Z,37.00
2018-12-14T22:47:56.595Z,37.00
2018-12-14T22:50:27.692Z,37.00
2018-12-14T22:52:58.822Z,36.80
2018-12-14T22:55:29.919Z,36.70
2018-12-14T22:58:01.047Z,36.70
2018-12-14T23:00:32.139Z,36.70
2018-12-14T23:03:05.226Z,36.80
2018-12-14T23:05:36.311Z,36.80
2018-12-14T23:08:07.449Z,36.80
2018-12-14T23:10:38.593Z,36.90
2018-12-14T23:13:09.600Z,36.80
2018-12-14T23:15:40.715Z,36.70
2018-12-14T23:18:11.765Z,36.80
2018-12-14T23:20:42.847Z,36.90
2018-12-14T23:23:13.984Z,36.70
2018-12-14T23:25:45.138Z,36.60
2018-12-14T23:28:16.268Z,36.60
2018-12-14T23:30:47.370Z,36.60
2018-12-14T23:33:18.537Z,36.70
2018-12-14T23:35:49.522Z,36.80
2018-12-14T23:38:20.647Z,36.70
2018-12-14T23:40:51.738Z,36.60
2018-12-14T23:43:22.861Z,36.50
2018-12-14T23:45:54.012Z,36.40
2018-12-14T23:48:26.196Z,36.50
2018-12-14T23:50:57.289Z,36.60
2018-12-14T23:53:28.408Z,36.60
2018-12-14T23:55:59.556Z,36.60
2018-12-14T23:58:30.555Z,36.60
